Nearby METAR Reports

 

KBFI - Boeing Field Seattle, WA, USA
Distance from station: SE 4mi, 7km
Updated: Mon, 26-Oct-2020 4:53pm PDT
Partly cloudy
Partly cloudy
 Wind from NNW
Wind: NNW 6 mph , 9 km/h
Temperature: 52°F , 11°C
Dew Point: 32°F , 0°C
Humidity: 47%
Barometer: 30.47 inHg , 1031.8 hPa
Clouds: Partly cloudy
Visibility: 10 miles , 16 km
Cloud details: Partly cloudy 5500 ft
2020/10/26 23:53 KBFI 262353Z 33005KT 10SM SCT055 11/00 A3047 RMK AO2 SLP318 T01110000 10111 20083 56006
KSEA - Seattle/Metro, WA, USA
Distance from station: NE 5mi, 8km
Updated: Mon, 26-Oct-2020 4:53pm PDT
Partly cloudy
Partly cloudy
 Wind from N
Wind: N 5 mph , 7 km/h
Temperature: 52°F , 11°C
Dew Point: 34°F , 1°C
Humidity: 50%
Barometer: 30.46 inHg , 1031.5 hPa
Clouds: Partly cloudy
Visibility: 10 miles , 16 km
Cloud details: Partly cloudy 4900 ft
2020/10/26 23:53 KSEA 262353Z 01004KT 10SM SCT049 11/01 A3046 RMK AO2 SLP323 T01060006 10111 20067 55005
 
KTIW - Tacoma, WA, USA
Distance from station: S 30mi, 45km
Updated: Mon, 26-Oct-2020 4:53pm PDT
Few Clouds
Few Clouds
 Wind from ENE
Wind: ENE 3 mph , 6 km/h
Temperature: 48°F , 9°C
Dew Point: 34°F , 1°C
Humidity: 58%
Barometer: 30.46 inHg , 1031.5 hPa
Clouds: Few Clouds
Visibility: 10 miles , 16 km
Cloud details: Few Clouds 7500 ft
2020/10/26 23:53 KTIW 262353Z 06003KT 10SM FEW075 09/01 A3046 RMK AO2 SLP317 T00940006 10100 20056 56007
KCLM - Port Angeles, WA, USA
Distance from station: NW 70mi, 100km
Updated: Mon, 26-Oct-2020 5:48pm PDT
Mostly cloudy
Mostly cloudy
 Wind from calm
Wind: Calm
Temperature: 45°F , 7°C
Dew Point: 36°F , 2°C
Humidity: 71%
Barometer: 30.47 inHg , 1031.8 hPa
Clouds: Mostly cloudy
Visibility: 10 miles , 16 km
Cloud details: Mostly cloudy 2500 ft
2020/10/27 00:48 KCLM 270048Z AUTO 00000KT 10SM BKN025 07/02 A3047 RMK AO2